Time;durP1;ratioP1;P1;durP2;ratioP2;P2;SDS_P1;SDS_P2;PMS_P1;PMS_P2;Temp;Humidity;BMP_temperature;BMP_pressure;BME280_temperature;BME280_humidity;BME280_pressure;Samples;Min_cycle;Max_cycle;Signal;HPM_P1;HPM_P2
2022/09/12 00:01:09;;;;;;;;;16.50;13.50;;;;;-144.96;100.00;116156.88;5078221;27;45378;-81
2022/09/12 00:03:35;;;;;;;;;13.40;9.20;;;;;-144.96;100.00;116156.88;5077180;27;45330;-81
2022/09/12 00:06:05;;;;;;;;;9.00;9.00;;;;;-144.96;100.00;116156.88;5076542;27;45517;-81
2022/09/12 00:08:31;;;;;;;;;11.80;11.80;;;;;-144.96;100.00;116156.88;5076503;27;45309;-81
2022/09/12 00:10:56;;;;;;;;;15.50;12.00;;;;;-144.96;100.00;116156.88;5076153;27;45332;-82
2022/09/12 00:13:21;;;;;;;;;15.25;12.25;;;;;-144.96;100.00;116156.88;5076940;27;45339;-81
2022/09/12 00:15:47;;;;;;;;;14.50;13.50;;;;;-144.96;100.00;116156.88;5076944;27;45355;-81
2022/09/12 00:18:15;;;;;;;;;15.00;13.75;;;;;-144.96;100.00;116156.88;5076642;27;45312;-81
2022/09/12 00:20:45;;;;;;;;;12.00;12.00;;;;;-144.96;100.00;116156.88;5076665;27;45529;-81
2022/09/12 00:23:12;;;;;;;;;11.00;9.40;;;;;-144.96;100.00;116156.88;5076609;27;45469;-81
2022/09/12 00:25:42;;;;;;;;;11.00;9.00;;;;;-144.96;100.00;116156.88;5075121;27;47692;-81
2022/09/12 00:28:07;;;;;;;;;13.40;13.00;;;;;-144.96;100.00;116156.88;5076786;27;45285;-81
2022/09/12 00:30:33;;;;;;;;;15.75;13.75;;;;;-144.96;100.00;116156.88;5077121;27;45502;-81
2022/09/12 00:32:58;;;;;;;;;16.25;14.50;;;;;-144.96;100.00;116156.88;5074939;27;45259;-81
2022/09/12 00:35:23;;;;;;;;;10.50;9.50;;;;;-144.96;100.00;116156.88;5075987;27;46196;-81
2022/09/12 00:37:49;;;;;;;;;11.50;11.25;;;;;-144.96;100.00;116156.88;5076253;27;45506;-81
2022/09/12 00:40:14;;;;;;;;;14.75;13.75;;;;;-144.96;100.00;116156.88;5076064;27;45520;-81
2022/09/12 00:42:40;;;;;;;;;13.75;12.00;;;;;-144.96;100.00;116156.88;5076426;27;45508;-82
2022/09/12 00:45:05;;;;;;;;;18.50;16.00;;;;;-144.96;100.00;116156.88;5076123;27;45485;-81
2022/09/12 00:47:33;;;;;;;;;18.25;13.75;;;;;-144.96;100.00;116156.88;5076104;27;45250;-81
2022/09/12 00:49:58;;;;;;;;;11.80;9.80;;;;;-144.96;100.00;116156.88;5076200;27;45454;-81
2022/09/12 00:52:34;;;;;;;;;14.25;13.00;;;;;-144.96;100.00;116156.88;5074680;27;45524;-81
2022/09/12 00:55:06;;;;;;;;;15.00;13.00;;;;;-144.96;100.00;116156.88;5076046;28;46171;-81
2022/09/12 00:57:37;;;;;;;;;12.60;12.40;;;;;-144.96;100.00;116156.88;5076500;27;45463;-81
2022/09/12 01:00:13;;;;;;;;;15.00;15.00;;;;;-144.96;100.00;116156.88;5075461;27;45413;-81
2022/09/12 01:02:40;;;;;;;;;13.25;13.25;;;;;-144.96;100.00;116156.88;5076296;27;45338;-81
2022/09/12 01:05:06;;;;;;;;;17.20;12.40;;;;;-144.96;100.00;116156.88;5076142;27;46832;-81
2022/09/12 01:07:35;;;;;;;;;15.40;13.80;;;;;-144.96;100.00;116156.88;5076497;27;45224;-81
2022/09/12 01:10:00;;;;;;;;;13.20;13.20;;;;;-144.96;100.00;116156.88;5076844;27;45514;-82
2022/09/12 01:12:26;;;;;;;;;14.00;11.50;;;;;-144.96;100.00;116156.88;5076870;28;45310;-81
2022/09/12 01:14:51;;;;;;;;;16.75;14.50;;;;;-144.96;100.00;116156.88;5076021;28;45389;-81
2022/09/12 01:17:17;;;;;;;;;19.00;17.00;;;;;-144.96;100.00;116156.88;5075528;27;45405;-82
2022/09/12 01:19:45;;;;;;;;;15.25;15.25;;;;;-144.96;100.00;116156.88;5076414;28;45458;-81
2022/09/12 01:22:38;;;;;;;;;19.20;16.80;;;;;-144.96;100.00;116156.88;5075587;28;45394;-81
2022/09/12 01:25:24;;;;;;;;;18.00;15.20;;;;;-144.96;100.00;116156.88;5075465;27;45387;-81
2022/09/12 01:28:01;;;;;;;;;15.80;15.40;;;;;-144.96;100.00;116156.88;5075841;27;45227;-81
2022/09/12 01:30:32;;;;;;;;;17.00;17.00;;;;;-144.96;100.00;116156.88;5075699;27;45480;-81
2022/09/12 01:33:08;;;;;;;;;14.60;14.20;;;;;-144.96;100.00;116156.88;5075801;28;45388;-81
2022/09/12 01:35:58;;;;;;;;;18.00;17.00;;;;;-144.96;100.00;116156.88;5075131;27;45306;-81
2022/09/12 01:38:28;;;;;;;;;21.40;15.60;;;;;-144.96;100.00;116156.88;5075064;27;45410;-81
2022/09/12 01:41:08;;;;;;;;;17.80;16.80;;;;;-144.96;100.00;116156.88;5075769;27;45458;-81
2022/09/12 01:43:47;;;;;;;;;21.50;14.75;;;;;-144.96;100.00;116156.88;5075707;27;44798;-81
2022/09/12 01:46:18;;;;;;;;;15.60;14.80;;;;;-144.96;100.00;116156.88;5075886;27;46405;-81
2022/09/12 01:48:50;;;;;;;;;14.60;13.20;;;;;-144.96;100.00;116156.88;5075575;27;45489;-83
2022/09/12 01:51:22;;;;;;;;;13.80;13.80;;;;;-144.96;100.00;116156.88;5076278;27;45246;-83
2022/09/12 01:54:04;;;;;;;;;10.75;8.00;;;;;-144.96;100.00;116156.88;5076340;27;45434;-83
2022/09/12 01:56:34;;;;;;;;;16.00;16.00;;;;;-144.96;100.00;116156.88;5074388;27;45339;-83
2022/09/12 01:59:13;;;;;;;;;18.00;16.00;;;;;-144.96;100.00;116156.88;5075354;27;45505;-83
2022/09/12 02:02:05;;;;;;;;;18.00;15.50;;;;;-144.96;100.00;116156.88;5076127;28;45461;-83
2022/09/12 02:04:57;;;;;;;;;12.75;12.75;;;;;-144.96;100.00;116156.88;5076039;27;45346;-83
2022/09/12 02:07:35;;;;;;;;;19.50;15.25;;;;;-144.96;100.00;116156.88;5075770;27;45398;-83
2022/09/12 02:10:21;;;;;;;;;12.40;12.40;;;;;-144.96;100.00;116156.88;5075597;28;45407;-83
2022/09/12 02:12:52;;;;;;;;;16.20;16.20;;;;;-144.96;100.00;116156.88;5080254;27;45442;-83
2022/09/12 02:15:22;;;;;;;;;18.00;13.50;;;;;-144.96;100.00;116156.88;5080481;27;45539;-83
2022/09/12 02:17:51;;;;;;;;;18.40;17.60;;;;;-144.96;100.00;116156.88;5080645;27;45401;-84
2022/09/12 02:20:22;;;;;;;;;20.40;14.00;;;;;-144.96;100.00;116156.88;5081977;27;44860;-83
2022/09/12 02:22:50;;;;;;;;;13.80;13.80;;;;;-144.96;100.00;116156.88;5080460;27;45369;-83
2022/09/12 02:25:19;;;;;;;;;15.75;12.25;;;;;-144.96;100.00;116156.88;5079326;28;45409;-83
2022/09/12 02:27:49;;;;;;;;;16.00;14.60;;;;;-144.96;100.00;116156.88;5078486;27;45422;-83
2022/09/12 02:30:18;;;;;;;;;14.00;13.40;;;;;-144.96;100.00;116156.88;5078818;27;45331;-82
2022/09/12 02:32:57;;;;;;;;;15.20;13.40;;;;;-144.96;100.00;116156.88;5078914;27;45436;-83
2022/09/12 02:35:46;;;;;;;;;20.00;15.75;;;;;-144.96;100.00;116156.88;5078507;27;45598;-83
2022/09/12 02:38:40;;;;;;;;;14.20;12.60;;;;;-144.96;100.00;116156.88;5076836;27;47197;-83
2022/09/12 02:41:06;;;;;;;;;17.60;15.20;;;;;-144.96;100.00;116156.88;5078892;27;45342;-83
2022/09/12 02:43:31;;;;;;;;;13.00;12.75;;;;;-144.96;100.00;116156.88;5079344;27;45366;-83
2022/09/12 02:45:57;;;;;;;;;14.50;12.00;;;;;-144.96;100.00;116156.88;5078693;27;45454;-83
2022/09/12 02:48:28;;;;;;;;;17.25;14.75;;;;;-144.96;100.00;116156.88;5079199;27;46169;-82
2022/09/12 02:50:54;;;;;;;;;16.00;15.00;;;;;-144.96;100.00;116156.88;5078572;27;45461;-83
2022/09/12 02:53:21;;;;;;;;;14.20;13.20;;;;;-144.96;100.00;116156.88;5079806;27;45338;-83
2022/09/12 02:55:47;;;;;;;;;12.75;11.75;;;;;-144.96;100.00;116156.88;5082064;27;45316;-83
2022/09/12 02:58:17;;;;;;;;;15.75;15.00;;;;;-144.96;100.00;116156.88;5079800;27;46160;-83
2022/09/12 03:00:53;;;;;;;;;13.80;13.40;;;;;-144.96;100.00;116156.88;5079713;27;45492;-83
2022/09/12 03:03:34;;;;;;;;;15.40;13.20;;;;;-144.96;100.00;116156.88;5078839;27;45613;-83
2022/09/12 03:06:06;;;;;;;;;12.50;11.50;;;;;-144.96;100.00;116156.88;5079396;27;44857;-83
2022/09/12 03:08:37;;;;;;;;;14.60;14.20;;;;;-144.96;100.00;116156.88;5078447;27;45530;-83
2022/09/12 03:11:03;;;;;;;;;17.60;15.00;;;;;-144.96;100.00;116156.88;5078339;27;45394;-84
2022/09/12 03:13:31;;;;;;;;;18.75;14.75;;;;;-144.96;100.00;116156.88;5078764;27;45305;-83
2022/09/12 03:16:20;;;;;;;;;22.00;14.50;;;;;-144.96;100.00;116156.88;5078345;27;45335;-83
2022/09/12 03:19:02;;;;;;;;;15.60;14.00;;;;;-144.96;100.00;116156.88;5078159;27;46290;-82
2022/09/12 03:21:46;;;;;;;;;13.20;12.20;;;;;-144.96;100.00;116156.88;5078311;27;45380;-83
2022/09/12 03:24:14;;;;;;;;;14.40;13.20;;;;;-144.96;100.00;116156.88;5078281;27;45397;-83
2022/09/12 03:27:07;;;;;;;;;16.40;15.20;;;;;-144.96;100.00;116156.88;5077599;27;45369;-83
2022/09/12 03:29:34;;;;;;;;;16.60;13.00;;;;;-144.96;100.00;116156.88;5078344;27;46438;-83
2022/09/12 03:32:00;;;;;;;;;16.20;16.20;;;;;-144.96;100.00;116156.88;5078098;28;45496;-83
2022/09/12 03:34:26;;;;;;;;;18.25;13.50;;;;;-144.96;100.00;116156.88;5078683;27;45451;-83
2022/09/12 03:36:54;;;;;;;;;15.50;13.00;;;;;-144.96;100.00;116156.88;5080026;27;45351;-83
2022/09/12 03:39:20;;;;;;;;;16.60;14.00;;;;;-144.96;100.00;116156.88;5079340;27;46594;-83
2022/09/12 03:41:45;;;;;;;;;19.60;13.20;;;;;-144.96;100.00;116156.88;5079299;27;45323;-83
2022/09/12 03:44:11;;;;;;;;;13.75;13.75;;;;;-144.96;100.00;116156.88;5077149;27;45339;-83
2022/09/12 03:46:36;;;;;;;;;16.75;14.50;;;;;-144.96;100.00;116156.88;5078168;28;45464;-83
2022/09/12 03:49:01;;;;;;;;;15.75;13.00;;;;;-144.96;100.00;116156.88;5079083;27;45470;-83
2022/09/12 03:51:27;;;;;;;;;13.50;13.00;;;;;-144.96;100.00;116156.88;5076891;27;45327;-83
2022/09/12 03:53:53;;;;;;;;;14.75;14.50;;;;;-144.96;100.00;116156.88;5077928;27;45367;-83
2022/09/12 03:56:19;;;;;;;;;13.50;12.50;;;;;-144.96;100.00;116156.88;5077958;27;45438;-82
2022/09/12 03:58:45;;;;;;;;;19.80;14.60;;;;;-144.96;100.00;116156.88;5077315;27;47191;-84
2022/09/12 04:01:16;;;;;;;;;15.50;13.50;;;;;-144.96;100.00;116156.88;5077665;27;45336;-84
2022/09/12 04:03:44;;;;;;;;;13.20;11.60;;;;;-144.96;100.00;116156.88;5077938;27;45592;-83
2022/09/12 04:06:11;;;;;;;;;12.75;12.75;;;;;-144.96;100.00;116156.88;5077727;27;45365;-83
2022/09/12 04:08:37;;;;;;;;;12.00;10.40;;;;;-144.96;100.00;116156.88;5078001;27;46175;-84
2022/09/12 04:11:04;;;;;;;;;13.50;11.50;;;;;-144.96;100.00;116156.88;5078040;27;45418;-83
2022/09/12 04:13:30;;;;;;;;;12.80;12.80;;;;;-144.96;100.00;116156.88;5077954;27;44702;-82
2022/09/12 04:15:59;;;;;;;;;17.50;14.00;;;;;-144.96;100.00;116156.88;5075569;28;45509;-81
2022/09/12 04:18:25;;;;;;;;;11.00;9.00;;;;;-144.96;100.00;116156.88;5076059;27;45358;-81
2022/09/12 04:20:51;;;;;;;;;11.60;11.60;;;;;-144.96;100.00;116156.88;5076749;27;45275;-81
2022/09/12 04:23:16;;;;;;;;;14.75;12.00;;;;;-144.96;100.00;116156.88;5075252;27;45534;-81
2022/09/12 04:25:42;;;;;;;;;17.00;13.75;;;;;-144.96;100.00;116156.88;5076518;27;45291;-82
2022/09/12 04:28:07;;;;;;;;;15.50;14.25;;;;;-144.96;100.00;116156.88;5076395;27;45340;-81
2022/09/12 04:30:33;;;;;;;;;14.75;12.75;;;;;-144.96;100.00;116156.88;5076395;27;45302;-81
2022/09/12 04:32:59;;;;;;;;;14.60;13.40;;;;;-144.96;100.00;116156.88;5074918;27;45427;-81
2022/09/12 04:35:25;;;;;;;;;14.00;11.00;;;;;-144.96;100.00;116156.88;5076205;27;45517;-83
2022/09/12 04:37:50;;;;;;;;;16.50;15.00;;;;;-144.96;100.00;116156.88;5076554;27;46827;-83
2022/09/12 04:40:15;;;;;;;;;14.50;13.25;;;;;-144.96;100.00;116156.88;5077725;27;45356;-82
2022/09/12 04:42:41;;;;;;;;;5.25;4.00;;;;;-144.96;100.00;116156.88;5079231;27;45463;-83
2022/09/12 04:45:07;;;;;;;;;17.00;13.75;;;;;-144.96;100.00;116156.88;5077620;27;45494;-83
2022/09/12 04:47:32;;;;;;;;;13.00;13.00;;;;;-144.96;100.00;116156.88;5076600;27;45379;-83
2022/09/12 04:49:57;;;;;;;;;20.25;13.00;;;;;-144.96;100.00;116156.88;5076706;27;45432;-83
2022/09/12 04:52:23;;;;;;;;;17.75;15.50;;;;;-144.96;100.00;116156.88;5076442;27;45394;-83
2022/09/12 04:54:48;;;;;;;;;16.00;11.50;;;;;-144.96;100.00;116156.88;5076822;27;45523;-83
2022/09/12 04:57:13;;;;;;;;;9.75;9.75;;;;;-144.96;100.00;116156.88;5076125;27;45683;-81
2022/09/12 04:59:39;;;;;;;;;12.75;10.50;;;;;-144.96;100.00;116156.88;5076362;27;45307;-82
2022/09/12 05:02:04;;;;;;;;;15.25;13.00;;;;;-144.96;100.00;116156.88;5076553;27;45378;-83
2022/09/12 05:04:30;;;;;;;;;13.75;12.00;;;;;-144.96;100.00;116156.88;5076790;27;45324;-83
2022/09/12 05:06:55;;;;;;;;;12.00;10.00;;;;;-144.96;100.00;116156.88;5076127;27;47118;-83
2022/09/12 05:09:21;;;;;;;;;20.25;14.50;;;;;-144.96;100.00;116156.88;5076532;27;45367;-82
2022/09/12 05:11:46;;;;;;;;;14.25;14.00;;;;;-144.96;100.00;116156.88;5076648;27;45298;-82
2022/09/12 05:14:12;;;;;;;;;21.00;16.25;;;;;-144.96;100.00;116156.88;5077495;27;45501;-83
2022/09/12 05:16:37;;;;;;;;;15.50;12.50;;;;;-144.96;100.00;116156.88;5077212;27;45435;-83
2022/09/12 05:19:03;;;;;;;;;14.00;14.00;;;;;-144.96;100.00;116156.88;5077793;27;45339;-83
2022/09/12 05:21:28;;;;;;;;;16.00;15.25;;;;;-144.96;100.00;116156.88;5079728;27;45326;-84
2022/09/12 05:23:56;;;;;;;;;20.00;16.75;;;;;-144.96;100.00;116156.88;5080103;27;45476;-83
2022/09/12 05:26:22;;;;;;;;;16.25;13.75;;;;;-144.96;100.00;116156.88;5081637;27;45422;-82
2022/09/12 05:28:49;;;;;;;;;15.20;13.60;;;;;-144.96;100.00;116156.88;5081498;27;45409;-81
2022/09/12 05:31:20;;;;;;;;;13.80;13.80;;;;;-144.96;100.00;116156.88;5078772;27;45228;-83
2022/09/12 05:33:48;;;;;;;;;15.00;14.00;;;;;-144.96;100.00;116156.88;5078249;27;45499;-81
2022/09/12 05:36:26;;;;;;;;;15.60;14.20;;;;;-144.96;100.00;116156.88;5075208;27;46422;-82
2022/09/12 05:38:51;;;;;;;;;14.60;14.20;;;;;-144.96;100.00;116156.88;5075577;27;45385;-82
2022/09/12 05:41:23;;;;;;;;;18.25;15.25;;;;;-144.96;100.00;116156.88;5075779;27;45322;-81
2022/09/12 05:44:00;;;;;;;;;15.75;13.00;;;;;-144.96;100.00;116156.88;5074260;27;45608;-81
2022/09/12 05:46:27;;;;;;;;;15.80;14.40;;;;;-144.96;100.00;116156.88;5075871;28;46744;-82
2022/09/12 05:48:54;;;;;;;;;17.60;16.20;;;;;-144.96;100.00;116156.88;5079431;27;44797;-82
2022/09/12 05:51:24;;;;;;;;;13.60;12.20;;;;;-144.96;100.00;116156.88;5079486;27;45401;-82
2022/09/12 05:53:52;;;;;;;;;15.50;15.25;;;;;-144.96;100.00;116156.88;5080265;27;45361;-83
2022/09/12 05:56:22;;;;;;;;;19.00;14.40;;;;;-144.96;100.00;116156.88;5078236;28;46272;-83
2022/09/12 05:58:57;;;;;;;;;14.80;12.80;;;;;-144.96;100.00;116156.88;5079773;27;45540;-83
2022/09/12 06:01:23;;;;;;;;;15.60;14.40;;;;;-144.96;100.00;116156.88;5080465;27;45411;-85
2022/09/12 06:03:51;;;;;;;;;15.00;13.40;;;;;-144.96;100.00;116156.88;5080150;27;45449;-83
2022/09/12 06:06:19;;;;;;;;;15.00;14.00;;;;;-144.96;100.00;116156.88;5079892;27;45441;-83
2022/09/12 06:08:46;;;;;;;;;12.20;10.20;;;;;-144.96;100.00;116156.88;5079802;27;45428;-84
2022/09/12 06:11:15;;;;;;;;;18.20;14.60;;;;;-144.96;100.00;116156.88;5080088;27;45480;-84
2022/09/12 06:13:42;;;;;;;;;14.80;11.00;;;;;-144.96;100.00;116156.88;5080784;27;44800;-83
2022/09/12 06:16:11;;;;;;;;;15.00;14.40;;;;;-144.96;100.00;116156.88;5082551;27;45386;-84
2022/09/12 06:18:37;;;;;;;;;14.80;12.00;;;;;-144.96;100.00;116156.88;5084225;27;45435;-84
2022/09/12 06:21:11;;;;;;;;;14.80;13.20;;;;;-144.96;100.00;116156.88;5081798;27;45339;-82
2022/09/12 06:23:37;;;;;;;;;12.00;10.40;;;;;-144.96;100.00;116156.88;5078593;27;45588;-82
2022/09/12 06:26:03;;;;;;;;;8.80;8.80;;;;;-144.96;100.00;116156.88;5076978;27;47742;-82
2022/09/12 06:28:31;;;;;;;;;9.60;9.60;;;;;-144.96;100.00;116156.88;5078578;27;45344;-84
2022/09/12 06:31:04;;;;;;;;;11.40;9.40;;;;;-144.96;100.00;116154.81;5080000;27;45146;-84
2022/09/12 06:33:32;;;;;;;;;10.80;10.00;;;;;-144.96;100.00;116154.81;5078804;27;45338;-84
2022/09/12 06:36:09;;;;;;;;;8.40;8.40;;;;;-144.96;100.00;115368.88;5079654;27;45943;-83
2022/09/12 06:38:34;;;;;;;;;9.00;8.60;;;;;-144.96;100.00;113011.88;5079351;27;44902;-83
2022/09/12 06:41:03;;;;;;;;;10.00;9.25;;;;;-144.96;100.00;111703.03;5079948;27;45283;-84
2022/09/12 06:43:29;;;;;;;;;10.60;9.80;;;;;-144.96;100.00;110394.59;5079715;27;44792;-84
2022/09/12 06:45:55;;;;;;;;;14.00;13.20;;;;;-144.96;100.00;108563.50;5080472;27;45504;-83
2022/09/12 06:48:20;;;;;;;;;14.00;14.00;;;;;-144.96;100.00;107256.06;5080358;27;45460;-83
2022/09/12 06:51:01;;;;;;;;;10.75;10.75;;;;;-144.96;100.00;106733.22;5079109;27;45406;-85
2022/09/12 06:53:27;;;;;;;;;11.00;10.20;;;;;-144.96;100.00;106994.66;5080084;27;45442;-83
2022/09/12 06:55:56;;;;;;;;;11.40;10.80;;;;;-144.96;100.00;107256.06;5079265;27;46014;-83
2022/09/12 06:58:21;;;;;;;;;11.80;10.80;;;;;-144.96;100.00;108040.47;5078647;27;45457;-84
2022/09/12 07:00:46;;;;;;;;;15.75;13.00;;;;;-144.96;100.00;108825.03;5080246;27;45212;-83
2022/09/12 07:03:12;;;;;;;;;13.50;13.50;;;;;-144.96;100.00;109348.16;5081519;27;45215;-84
2022/09/12 07:05:37;;;;;;;;;13.25;13.25;;;;;-144.96;100.00;109348.16;5080006;27;45547;-84
2022/09/12 07:08:02;;;;;;;;;12.25;12.00;;;;;-144.96;100.00;108301.97;5081719;27;45495;-83
2022/09/12 07:10:29;;;;;;;;;14.25;13.50;;;;;-144.96;100.00;107779.00;5079880;27;45211;-84
2022/09/12 07:12:55;;;;;;;;;15.40;13.40;;;;;-144.96;100.00;106994.66;5079248;28;45400;-84
2022/09/12 07:15:20;;;;;;;;;14.50;11.75;;;;;-144.96;100.00;105165.06;5079782;27;46268;-84
2022/09/12 07:17:45;;;;;;;;;14.00;12.50;;;;;-144.96;100.00;102814.00;5080496;27;45452;-84
2022/09/12 07:20:11;;;;;;;;;10.25;10.25;;;;;-144.96;100.00;100464.25;5080024;27;45410;-83
2022/09/12 07:22:36;;;;;;;;;11.25;11.25;;;;;-144.96;100.00;98115.88;5078850;27;45473;-83
2022/09/12 07:25:02;;;;;;;;;14.25;12.25;;;;;-144.96;100.00;95247.50;5079460;27;45179;-84
2022/09/12 07:27:27;;;;;;;;;9.75;7.25;;;;;-144.96;100.00;92641.66;5079826;27;45390;-84
2022/09/12 07:29:53;;;;;;;;;10.75;10.75;;;;;-144.96;100.00;89777.16;5081414;27;45413;-83
2022/09/12 07:32:19;;;;;;;;;12.40;12.40;;;;;-144.96;100.00;85874.31;5080331;27;45454;-84
2022/09/12 07:34:44;;;;;;;;;12.50;10.25;;;;;-144.96;100.00;82235.03;5084558;27;45148;-83
2022/09/12 07:37:10;;;;;;;;;11.50;10.25;;;;;-144.96;100.00;78339.50;5098518;27;45216;-83
2022/09/12 07:39:36;;;;;;;;;15.50;14.00;;;;;-144.96;100.00;76263.41;5099003;27;45961;-85
2022/09/12 07:42:02;;;;;;;;;13.40;13.20;;;;;-144.96;100.00;73669.84;5098899;27;45211;-83
2022/09/12 07:44:28;;;;;;;;;13.50;12.00;;;;;-144.96;100.00;67969.84;5099800;27;45293;-84
2022/09/12 07:46:53;;;;;;;;;12.50;8.25;;;;;-144.96;100.00;63570.91;5099453;27;45362;-84
2022/09/12 07:49:19;;;;;;;;;12.00;9.75;;;;;-144.96;100.00;59951.88;5099386;27;45414;-84
2022/09/12 07:51:44;;;;;;;;;8.00;8.00;;;;;-144.96;100.00;54529.53;5098598;27;45569;-83
2022/09/12 07:54:10;;;;;;;;;14.50;14.00;;;;;-144.96;100.00;50145.41;5098558;27;46010;-83
2022/09/12 07:56:36;;;;;;;;;13.00;11.60;;;;;-144.96;100.00;47311.25;5101394;27;45334;-83
2022/09/12 07:59:01;;;;;;;;;12.75;10.50;;;;;-144.96;100.00;42935.13;5101715;27;45509;-83
2022/09/12 08:01:28;;;;;;;;;8.40;8.40;;;;;-144.96;100.00;37022.25;5098114;27;45336;-83
2022/09/12 08:03:56;;;;;;;;;9.75;6.00;;;;;-144.96;100.00;30348.84;5097996;27;46235;-83
2022/09/12 08:06:23;;;;;;;;;11.00;10.00;;;;;-144.96;100.00;26760.16;5097938;27;45232;-83
2022/09/12 08:08:50;;;;;;;;;13.40;11.00;;;;;-144.96;100.00;24967.06;5098454;27;45368;-85
2022/09/12 08:11:18;;;;;;;;;11.80;9.20;;;;;-144.96;100.00;19081.22;5098881;27;45605;-84
2022/09/12 08:13:45;;;;;;;;;13.60;11.80;;;;;-144.96;100.00;11162.22;5099980;27;45271;-84
2022/09/12 08:16:16;;;;;;;;;10.40;8.80;;;;;-144.96;100.00;4278.19;5099113;27;45218;-83
2022/09/12 08:18:43;;;;;;;;;8.00;8.00;;;;;-144.96;100.00;-8338.50;5100698;27;45445;-84
2022/09/12 08:21:12;;;;;;;;;7.80;7.80;;;;;-144.96;100.00;-7576.72;5098196;27;45324;-84
2022/09/12 08:23:38;;;;;;;;;10.00;9.80;;;;;-144.96;100.00;-13167.56;5097374;27;47480;-84
2022/09/12 08:26:05;;;;;;;;;8.50;7.00;;;;;-144.96;100.00;-15744.16;5098070;27;45196;-83
2022/09/12 08:28:32;;;;;;;;;7.20;7.20;;;;;-144.96;100.00;-15791.16;5097647;27;45329;-84
2022/09/12 08:31:01;;;;;;;;;8.60;8.40;;;;;-144.96;100.00;-15791.16;5097670;27;45332;-83
2022/09/12 08:33:32;;;;;;;;;8.20;8.20;;;;;-144.96;100.00;-15791.16;5097943;27;45538;-85
2022/09/12 08:36:03;;;;;;;;;10.60;9.60;;;;;-144.96;100.00;-15791.16;5081130;27;45467;-84
2022/09/12 08:38:35;;;;;;;;;16.40;10.20;;;;;-144.96;100.00;-15791.16;5077759;27;45307;-83
2022/09/12 08:41:13;;;;;;;;;11.00;9.00;;;;;-144.96;100.00;-15791.16;5077991;27;45203;-83
2022/09/12 08:43:44;;;;;;;;;9.00;8.40;;;;;-144.96;100.00;-15791.16;5078162;27;45315;-83
2022/09/12 08:46:28;;;;;;;;;8.20;8.20;;;;;-144.96;100.00;-15791.16;5081781;28;45204;-84
2022/09/12 08:48:57;;;;;;;;;7.60;6.20;;;;;-144.96;100.00;-15791.16;5080451;27;44641;-84
2022/09/12 08:51:23;;;;;;;;;6.60;6.00;;;;;-144.96;100.00;-15791.16;5077368;27;44730;-83
2022/09/12 08:53:53;;;;;;;;;6.00;6.00;;;;;-144.96;100.00;-15791.16;5076890;27;45055;-84
2022/09/12 08:56:19;;;;;;;;;7.00;7.00;;;;;-144.96;100.00;-15791.16;5077920;27;44871;-83
2022/09/12 08:58:45;;;;;;;;;8.25;8.25;;;;;-144.96;100.00;-15791.16;5077901;27;45383;-83
2022/09/12 09:01:34;;;;;;;;;10.60;8.20;;;;;-144.96;100.00;-15791.16;5077271;27;45329;-84
2022/09/12 09:04:14;;;;;;;;;6.60;6.60;;;;;-144.96;100.00;-15791.16;5077504;28;45418;-83
2022/09/12 09:07:17;;;;;;;;;8.60;6.00;;;;;-144.96;100.00;-15791.16;5077640;27;45303;-83
2022/09/12 09:10:01;;;;;;;;;6.20;6.20;;;;;-144.96;100.00;-15791.16;5077434;27;45525;-84
2022/09/12 09:12:59;;;;;;;;;8.80;8.20;;;;;-144.96;100.00;-15791.16;5077807;28;45283;-81
2022/09/12 09:15:30;;;;;;;;;9.20;7.80;;;;;-144.96;100.00;-15791.16;5075121;27;46331;-83
2022/09/12 09:17:59;;;;;;;;;6.40;5.00;;;;;-144.96;100.00;-15791.16;5076289;27;45524;-82
2022/09/12 09:20:35;;;;;;;;;4.40;4.40;;;;;-144.96;100.00;-15791.16;5077040;27;45421;-82
2022/09/12 09:23:06;;;;;;;;;4.20;4.20;;;;;-144.96;100.00;-15791.16;5079231;27;45469;-83
2022/09/12 09:25:52;;;;;;;;;6.80;6.80;;;;;-144.96;100.00;-15791.16;5081294;27;45139;-83
2022/09/12 09:28:40;;;;;;;;;9.20;8.20;;;;;-144.96;100.00;-15791.16;5081729;27;44804;-83
2022/09/12 09:31:21;;;;;;;;;6.40;4.80;;;;;-144.96;100.00;-15791.16;5079668;27;45379;-81
2022/09/12 09:33:50;;;;;;;;;5.80;4.20;;;;;-144.96;100.00;-15791.16;5080039;27;45475;-80
2022/09/12 09:36:48;;;;;;;;;5.80;5.60;;;;;-144.96;100.00;-15791.16;5098512;27;45381;-82
2022/09/12 09:39:24;;;;;;;;;5.60;4.20;;;;;-144.96;100.00;-15791.16;5099522;27;44822;-82
2022/09/12 09:42:09;;;;;;;;;3.60;3.60;;;;;-144.96;100.00;-15791.16;5100308;27;45405;-82
2022/09/12 09:44:35;;;;;;;;;6.20;5.00;;;;;-144.96;100.00;-15791.16;5101860;27;44803;-84
2022/09/12 09:47:01;;;;;;;;;5.60;5.20;;;;;-144.96;100.00;-15791.16;5101819;27;45487;-84
2022/09/12 09:49:29;;;;;;;;;4.50;4.50;;;;;-144.96;100.00;-15791.16;5101254;27;45312;-84
2022/09/12 09:51:56;;;;;;;;;5.60;5.00;;;;;-144.96;100.00;-15791.16;5101804;27;45248;-83
2022/09/12 09:54:30;;;;;;;;;3.80;3.80;;;;;-144.96;100.00;-15791.16;5102198;27;45320;-84
2022/09/12 09:56:55;;;;;;;;;4.40;4.00;;;;;-144.96;100.00;-15791.16;5101148;27;46235;-84
2022/09/12 09:59:30;;;;;;;;;3.25;3.25;;;;;-144.96;100.00;-15791.16;5101588;27;44899;-84
2022/09/12 10:02:02;;;;;;;;;6.00;6.00;;;;;-144.96;100.00;-15791.16;5100456;27;45297;-84
2022/09/12 10:04:39;;;;;;;;;7.20;5.80;;;;;-144.96;100.00;-15791.16;5101288;27;45509;-84
2022/09/12 10:07:05;;;;;;;;;5.20;3.60;;;;;-144.96;100.00;-15791.16;5101229;27;45416;-84
2022/09/12 10:09:33;;;;;;;;;4.75;4.75;;;;;-144.96;100.00;-15791.16;5099484;27;44694;-84
2022/09/12 10:12:01;;;;;;;;;4.40;4.00;;;;;-144.96;100.00;-15791.16;5101208;27;45219;-84
2022/09/12 10:14:34;;;;;;;;;4.20;4.00;;;;;-144.96;100.00;-15791.16;5100688;27;45447;-84
2022/09/12 10:17:00;;;;;;;;;4.20;4.00;;;;;-144.96;100.00;-15791.16;5099889;27;46774;-84
2022/09/12 10:19:38;;;;;;;;;4.80;4.80;;;;;-144.96;100.00;-15791.16;5100391;27;45381;-84
2022/09/12 10:22:05;;;;;;;;;4.60;4.60;;;;;-144.96;100.00;-15791.16;5102902;27;45431;-84
2022/09/12 10:24:35;;;;;;;;;4.00;4.00;;;;;-144.96;100.00;-15791.16;5103774;27;45606;-84
2022/09/12 10:27:12;;;;;;;;;3.60;3.60;;;;;-144.96;100.00;-15791.16;5100514;27;45541;-84
2022/09/12 10:29:46;;;;;;;;;6.00;4.40;;;;;-144.96;100.00;-15791.16;5098801;27;45539;-84
2022/09/12 10:32:20;;;;;;;;;4.00;2.60;;;;;-144.96;100.00;-15791.16;5100067;27;45404;-84
2022/09/12 10:34:46;;;;;;;;;3.20;3.20;;;;;-144.96;100.00;-15791.16;5095258;27;45366;-84
2022/09/12 10:37:24;;;;;;;;;3.25;3.25;;;;;-144.96;100.00;-15791.16;5080320;27;45408;-84
2022/09/12 10:39:53;;;;;;;;;6.60;5.20;;;;;-144.96;100.00;-15791.16;5079240;27;45319;-82
2022/09/12 10:42:41;;;;;;;;;2.80;2.80;;;;;-144.96;100.00;-15791.16;5077972;27;45228;-82
2022/09/12 10:45:21;;;;;;;;;1.40;1.40;;;;;-144.96;100.00;-15791.16;5078857;27;45400;-83
2022/09/12 10:47:47;;;;;;;;;2.00;2.00;;;;;-144.96;100.00;-15791.16;5078262;27;45256;-82
2022/09/12 10:50:27;;;;;;;;;3.00;1.40;;;;;-144.96;100.00;-15791.16;5077995;27;45445;-82
2022/09/12 10:52:53;;;;;;;;;3.00;1.80;;;;;-144.96;100.00;-15791.16;5078713;27;45330;-83
2022/09/12 10:55:28;;;;;;;;;1.60;1.60;;;;;-144.96;100.00;-15791.16;5078849;27;44907;-82
2022/09/12 10:58:20;;;;;;;;;1.80;1.80;;;;;-144.96;100.00;-15791.16;5078830;27;45461;-82
2022/09/12 11:00:56;;;;;;;;;3.20;3.20;;;;;-144.96;100.00;-15791.16;5079755;27;45306;-82
2022/09/12 11:03:49;;;;;;;;;2.00;2.00;;;;;-144.96;100.00;-15791.16;5090818;27;45244;-83
2022/09/12 11:06:21;;;;;;;;;3.40;2.80;;;;;-144.96;100.00;-15791.16;5079950;27;45391;-83